createdAt,value
2023-04-16T00:00:43.696Z,7.10
2023-04-16T00:03:29.197Z,7.06
2023-04-16T00:06:14.224Z,7.04
2023-04-16T00:08:59.254Z,6.95
2023-04-16T00:11:44.592Z,6.97
2023-04-16T00:14:30.026Z,6.93
2023-04-16T00:17:15.522Z,6.89
2023-04-16T00:20:00.520Z,6.88
2023-04-16T00:22:46.050Z,6.83
2023-04-16T00:25:31.347Z,6.80
2023-04-16T00:28:16.472Z,6.74
2023-04-16T00:31:01.763Z,6.71
2023-04-16T00:33:46.587Z,6.70
2023-04-16T00:36:31.692Z,6.71
2023-04-16T00:39:16.804Z,6.63
2023-04-16T00:42:01.871Z,6.53
2023-04-16T00:44:47.140Z,6.66
2023-04-16T00:47:32.334Z,6.58
2023-04-16T00:50:17.738Z,6.64
2023-04-16T00:53:03.922Z,6.59
2023-04-16T00:55:49.097Z,6.55
2023-04-16T00:58:35.577Z,6.53
2023-04-16T01:01:20.606Z,6.54
2023-04-16T01:04:07.128Z,6.53
2023-04-16T01:06:52.582Z,6.52
2023-04-16T01:09:37.661Z,6.48
2023-04-16T01:12:22.709Z,6.40
2023-04-16T01:15:08.612Z,6.37
2023-04-16T01:17:53.645Z,6.32
2023-04-16T01:20:38.642Z,6.23
2023-04-16T01:23:23.769Z,6.28
2023-04-16T01:26:09.017Z,6.18
2023-04-16T01:28:54.343Z,6.28
2023-04-16T01:31:39.458Z,6.27
2023-04-16T01:34:24.641Z,6.25
2023-04-16T01:37:09.599Z,6.21
2023-04-16T01:39:54.660Z,6.14
2023-04-16T01:42:39.934Z,6.12
2023-04-16T01:45:25.425Z,6.10
2023-04-16T01:48:10.685Z,6.07
2023-04-16T01:50:55.759Z,6.02
2023-04-16T01:53:41.021Z,6.00
2023-04-16T01:56:26.448Z,5.97
2023-04-16T01:59:12.288Z,5.96
2023-04-16T02:01:59.626Z,5.87
2023-04-16T02:04:45.932Z,5.93
2023-04-16T02:07:31.760Z,5.86
2023-04-16T02:10:17.060Z,5.94
2023-04-16T02:13:01.831Z,5.94
2023-04-16T02:15:47.744Z,5.73
2023-04-16T02:18:32.812Z,5.92
2023-04-16T02:21:17.806Z,5.88
2023-04-16T02:24:03.016Z,5.87
2023-04-16T02:26:48.277Z,5.87
2023-04-16T02:29:33.352Z,5.88
2023-04-16T02:32:18.408Z,5.87
2023-04-16T02:35:04.103Z,5.84
2023-04-16T02:37:49.144Z,5.85
2023-04-16T02:40:34.182Z,5.85
2023-04-16T02:43:19.469Z,5.87
2023-04-16T02:46:04.529Z,5.84
2023-04-16T02:48:49.958Z,5.79
2023-04-16T02:51:35.175Z,5.77
2023-04-16T02:54:20.413Z,5.79
2023-04-16T02:57:06.143Z,5.80
2023-04-16T02:59:51.034Z,5.75
2023-04-16T03:02:36.249Z,5.83
2023-04-16T03:05:21.572Z,5.84
2023-04-16T03:08:07.004Z,5.82
2023-04-16T03:10:52.006Z,5.80
2023-04-16T03:13:37.090Z,5.72
2023-04-16T03:16:22.425Z,5.79
2023-04-16T03:19:07.846Z,5.83
2023-04-16T03:21:53.406Z,5.87
2023-04-16T03:24:38.567Z,5.87
2023-04-16T03:27:23.575Z,5.86
2023-04-16T03:30:11.178Z,5.84
2023-04-16T03:32:56.291Z,5.79
2023-04-16T03:35:41.272Z,5.78
2023-04-16T03:38:26.617Z,5.80
2023-04-16T03:41:11.763Z,5.81
2023-04-16T03:43:56.949Z,5.79
2023-04-16T03:46:41.857Z,5.80
2023-04-16T03:49:26.962Z,5.82
2023-04-16T03:52:12.508Z,5.73
2023-04-16T03:54:57.707Z,5.71
2023-04-16T03:57:42.675Z,5.70
2023-04-16T04:00:27.645Z,5.80
2023-04-16T04:03:13.125Z,5.80
2023-04-16T04:05:58.586Z,5.80
2023-04-16T04:08:43.709Z,5.78
2023-04-16T04:11:28.640Z,5.67
2023-04-16T04:14:13.640Z,5.74
2023-04-16T04:16:58.661Z,5.69
2023-04-16T04:19:54.245Z,5.70
2023-04-16T04:22:46.312Z,5.61
2023-04-16T04:25:31.510Z,5.58
2023-04-16T04:28:16.726Z,5.59
2023-04-16T04:31:02.289Z,5.61
2023-04-16T04:33:47.572Z,5.65
2023-04-16T04:36:32.507Z,5.61
2023-04-16T04:39:17.674Z,5.71
2023-04-16T04:42:03.244Z,5.73
2023-04-16T04:44:48.537Z,5.75
2023-04-16T04:47:33.744Z,5.80
2023-04-16T04:50:19.016Z,5.82
2023-04-16T04:53:09.814Z,5.87
2023-04-16T04:55:57.513Z,5.81
2023-04-16T04:58:51.372Z,5.91
2023-04-16T05:01:36.427Z,5.83
2023-04-16T05:04:21.333Z,5.95
2023-04-16T05:07:07.186Z,5.86
2023-04-16T05:09:52.183Z,5.97
2023-04-16T05:12:37.181Z,5.98
2023-04-16T05:15:22.571Z,5.95
2023-04-16T05:18:07.760Z,5.98
2023-04-16T05:20:52.766Z,6.01
2023-04-16T05:23:37.761Z,6.03
2023-04-16T05:26:23.453Z,6.03
2023-04-16T05:29:08.653Z,6.02
2023-04-16T05:31:54.046Z,6.02
2023-04-16T05:34:39.318Z,6.03
2023-04-16T05:37:24.319Z,6.09
2023-04-16T05:40:09.735Z,6.12
2023-04-16T05:42:54.476Z,6.05
2023-04-16T05:45:40.806Z,6.18
2023-04-16T05:48:25.795Z,6.12
2023-04-16T05:51:10.701Z,6.23
2023-04-16T05:53:55.746Z,6.27
2023-04-16T05:56:41.009Z,6.31
2023-04-16T05:59:26.518Z,6.33
2023-04-16T06:02:11.750Z,6.38
2023-04-16T06:04:57.289Z,6.42
2023-04-16T06:07:42.578Z,6.39
2023-04-16T06:10:28.089Z,6.39
2023-04-16T06:13:13.704Z,6.46
2023-04-16T06:15:58.519Z,6.46
2023-04-16T06:18:43.534Z,6.51
2023-04-16T06:21:28.891Z,6.59
2023-04-16T06:24:13.958Z,6.64
2023-04-16T06:26:59.041Z,6.67
2023-04-16T06:29:44.518Z,6.81
2023-04-16T06:32:30.700Z,6.83
2023-04-16T06:35:15.981Z,6.93
2023-04-16T06:38:00.906Z,6.91
2023-04-16T06:40:46.104Z,7.01
2023-04-16T06:43:33.415Z,7.04
2023-04-16T06:46:18.399Z,7.10
2023-04-16T06:49:03.236Z,7.17
2023-04-16T06:51:48.347Z,7.19
2023-04-16T06:54:34.146Z,7.28
2023-04-16T06:57:19.061Z,7.26
2023-04-16T07:00:05.115Z,7.39
2023-04-16T07:02:50.560Z,7.41
2023-04-16T07:05:35.693Z,7.51
2023-04-16T07:08:20.740Z,7.63
2023-04-16T07:11:05.963Z,7.76
2023-04-16T07:13:51.258Z,7.86
2023-04-16T07:16:37.667Z,7.97
2023-04-16T07:19:23.061Z,8.02
2023-04-16T07:22:08.196Z,8.17
2023-04-16T07:24:53.429Z,8.30
2023-04-16T07:27:38.357Z,8.41
2023-04-16T07:30:23.305Z,8.48
2023-04-16T07:33:08.480Z,8.56
2023-04-16T07:35:53.694Z,8.71
2023-04-16T07:38:38.904Z,8.83
2023-04-16T07:41:23.944Z,8.95
2023-04-16T07:44:09.511Z,9.02
2023-04-16T07:46:54.436Z,9.25
2023-04-16T07:49:39.837Z,9.29
2023-04-16T07:52:25.143Z,9.38
2023-04-16T07:55:10.353Z,9.35
2023-04-16T07:57:55.218Z,9.58
2023-04-16T08:00:40.308Z,9.59
2023-04-16T08:03:25.927Z,9.46
2023-04-16T08:06:11.507Z,9.71
2023-04-16T08:08:56.530Z,9.83
2023-04-16T08:11:41.711Z,9.88
2023-04-16T08:14:26.888Z,10.00
2023-04-16T08:17:18.855Z,10.14
2023-04-16T08:20:04.869Z,10.22
2023-04-16T08:22:50.224Z,10.38
2023-04-16T08:25:35.461Z,10.53
2023-04-16T08:28:20.820Z,10.58
2023-04-16T08:31:06.146Z,10.65
2023-04-16T08:33:51.399Z,10.73
2023-04-16T08:36:36.148Z,10.85
2023-04-16T08:39:21.673Z,10.98
2023-04-16T08:42:21.353Z,11.07
2023-04-16T08:45:16.033Z,11.14
2023-04-16T08:48:01.951Z,11.30
2023-04-16T08:50:52.292Z,11.30
2023-04-16T08:54:05.411Z,11.41
2023-04-16T08:56:51.414Z,11.51
2023-04-16T08:59:37.216Z,11.56
2023-04-16T09:02:22.605Z,11.59
2023-04-16T09:05:10.419Z,11.72
2023-04-16T09:07:56.057Z,11.77
2023-04-16T09:10:41.112Z,11.66
2023-04-16T09:13:26.891Z,11.94
2023-04-16T09:16:12.945Z,12.03
2023-04-16T09:18:57.998Z,12.11
2023-04-16T09:21:48.189Z,12.21
2023-04-16T09:24:34.273Z,12.36
2023-04-16T09:27:20.079Z,12.56
2023-04-16T09:30:23.552Z,12.58
2023-04-16T09:33:22.001Z,12.75
2023-04-16T09:36:07.670Z,12.85
2023-04-16T09:38:54.912Z,12.92
2023-04-16T09:41:41.230Z,13.02
2023-04-16T09:44:38.444Z,13.17
2023-04-16T09:47:25.965Z,13.17
2023-04-16T09:50:18.931Z,13.29
2023-04-16T09:53:04.543Z,13.47
2023-04-16T09:55:49.761Z,13.61
2023-04-16T09:58:38.463Z,13.79
2023-04-16T10:01:23.934Z,13.95
2023-04-16T10:04:09.236Z,14.04
2023-04-16T10:07:05.441Z,14.25
2023-04-16T10:09:52.478Z,14.39
2023-04-16T10:12:37.698Z,14.39
2023-04-16T10:15:23.292Z,14.52
2023-04-16T10:18:08.386Z,14.67
2023-04-16T10:20:53.815Z,14.80
2023-04-16T10:23:39.993Z,14.82
2023-04-16T10:26:25.348Z,14.94
2023-04-16T10:29:12.935Z,15.00
2023-04-16T10:31:58.887Z,14.87
2023-04-16T10:34:44.372Z,14.85
2023-04-16T10:37:33.091Z,15.03
2023-04-16T10:40:26.344Z,15.13
2023-04-16T10:43:17.661Z,15.26
2023-04-16T10:46:21.897Z,15.29
2023-04-16T10:49:27.112Z,15.43
2023-04-16T10:52:13.839Z,15.65
2023-04-16T10:55:00.223Z,15.79
2023-04-16T10:57:49.812Z,15.90
2023-04-16T11:00:49.702Z,15.91
2023-04-16T11:03:34.806Z,16.01
2023-04-16T11:06:28.100Z,16.04
2023-04-16T11:09:42.126Z,16.01
2023-04-16T11:12:34.861Z,16.16
2023-04-16T11:15:20.256Z,16.10
2023-04-16T11:18:06.971Z,16.29
2023-04-16T11:20:52.642Z,16.19
2023-04-16T11:23:51.883Z,16.32
2023-04-16T11:26:36.870Z,16.29
2023-04-16T11:29:21.869Z,16.36
2023-04-16T11:32:07.124Z,16.39
2023-04-16T11:34:52.251Z,16.45
2023-04-16T11:37:38.730Z,16.70
2023-04-16T11:40:24.260Z,16.71
2023-04-16T11:43:16.640Z,16.98
2023-04-16T11:46:20.609Z,17.22
2023-04-16T11:49:12.421Z,17.34
2023-04-16T11:51:58.639Z,17.69
2023-04-16T11:54:50.339Z,17.69
2023-04-16T11:57:35.536Z,17.71
2023-04-16T12:00:22.525Z,17.52
2023-04-16T12:03:10.865Z,17.38
2023-04-16T12:06:08.047Z,17.52
2023-04-16T12:08:53.364Z,17.43
2023-04-16T12:11:42.334Z,17.22
2023-04-16T12:14:28.395Z,16.92
2023-04-16T12:17:23.542Z,16.95
2023-04-16T12:20:09.735Z,16.96
2023-04-16T12:22:57.028Z,16.91
2023-04-16T12:25:42.946Z,16.87
2023-04-16T12:28:33.141Z,16.73
2023-04-16T12:31:20.413Z,16.74
2023-04-16T12:34:05.834Z,16.66
2023-04-16T12:37:08.010Z,16.72
2023-04-16T12:39:54.336Z,16.82
2023-04-16T12:42:39.502Z,16.94
2023-04-16T12:45:25.151Z,16.94
2023-04-16T12:48:10.403Z,16.96
2023-04-16T12:50:55.711Z,16.75
2023-04-16T12:53:40.953Z,16.94
2023-04-16T12:56:26.233Z,17.12
2023-04-16T12:59:11.567Z,17.39
2023-04-16T13:01:57.043Z,17.51
2023-04-16T13:04:42.472Z,17.72
2023-04-16T13:07:28.230Z,17.85
2023-04-16T13:10:13.819Z,17.96
2023-04-16T13:12:58.627Z,17.87
2023-04-16T13:15:43.633Z,18.02
2023-04-16T13:18:28.690Z,18.03
2023-04-16T13:21:13.588Z,18.08
2023-04-16T13:23:59.316Z,18.07
2023-04-16T13:26:44.933Z,18.26
2023-04-16T13:29:30.076Z,18.45
2023-04-16T13:32:15.456Z,18.42
2023-04-16T13:35:00.199Z,18.47
2023-04-16T13:37:45.326Z,18.50
2023-04-16T13:40:30.843Z,18.68
2023-04-16T13:43:16.602Z,18.92
2023-04-16T13:46:01.962Z,19.03
2023-04-16T13:48:47.295Z,19.15
2023-04-16T13:51:32.814Z,19.46
2023-04-16T13:54:17.780Z,19.49
2023-04-16T13:57:02.958Z,19.35
2023-04-16T13:59:48.339Z,19.79
2023-04-16T14:02:33.422Z,20.34
2023-04-16T14:05:19.481Z,20.53
2023-04-16T14:08:04.352Z,20.49
2023-04-16T14:10:49.724Z,20.23
2023-04-16T14:13:34.839Z,19.69
2023-04-16T14:16:20.043Z,19.46
2023-04-16T14:19:05.423Z,19.29
2023-04-16T14:21:50.492Z,19.10
2023-04-16T14:24:35.834Z,18.90
2023-04-16T14:27:21.084Z,18.70
2023-04-16T14:30:07.102Z,18.58
2023-04-16T14:32:52.247Z,18.52
2023-04-16T14:35:37.408Z,18.26
2023-04-16T14:38:22.904Z,18.26
2023-04-16T14:41:08.112Z,18.26
2023-04-16T14:43:52.949Z,18.33
2023-04-16T14:46:38.517Z,18.50
2023-04-16T14:49:24.096Z,19.62
2023-04-16T14:52:09.201Z,19.87
2023-04-16T14:54:57.909Z,20.09
2023-04-16T14:57:42.870Z,19.63
2023-04-16T15:00:28.460Z,19.32
2023-04-16T15:03:13.876Z,19.05
2023-04-16T15:05:59.407Z,18.88
2023-04-16T15:08:44.658Z,18.71
2023-04-16T15:11:30.125Z,18.46
2023-04-16T15:14:15.295Z,18.30
2023-04-16T15:17:00.811Z,18.23
2023-04-16T15:19:46.477Z,18.08
2023-04-16T15:22:31.674Z,18.10
2023-04-16T15:25:16.811Z,18.03
2023-04-16T15:28:02.637Z,17.90
2023-04-16T15:30:47.915Z,17.87
2023-04-16T15:33:32.922Z,17.93
2023-04-16T15:36:18.054Z,17.97
2023-04-16T15:39:03.506Z,17.81
2023-04-16T15:42:00.783Z,17.84
2023-04-16T15:44:46.894Z,18.04
2023-04-16T15:47:32.024Z,18.51
2023-04-16T15:50:17.912Z,18.94
2023-04-16T15:53:03.354Z,18.91
2023-04-16T15:55:52.373Z,18.54
2023-04-16T15:58:37.667Z,18.33
2023-04-16T16:01:22.864Z,18.22
2023-04-16T16:04:08.348Z,18.08
2023-04-16T16:06:54.024Z,18.02
2023-04-16T16:09:38.918Z,17.92
2023-04-16T16:12:23.967Z,17.82
2023-04-16T16:15:10.917Z,17.76
2023-04-16T16:17:57.802Z,17.63
2023-04-16T16:20:43.601Z,17.54
2023-04-16T16:23:28.773Z,17.45
2023-04-16T16:26:13.786Z,17.27
2023-04-16T16:28:58.552Z,17.30
2023-04-16T16:31:43.628Z,17.23
2023-04-16T16:34:28.649Z,17.18
2023-04-16T16:37:13.567Z,17.05
2023-04-16T16:39:58.625Z,17.04
2023-04-16T16:42:43.613Z,17.07
2023-04-16T16:45:30.524Z,16.98
2023-04-16T16:48:15.494Z,17.12
2023-04-16T16:51:01.061Z,16.91
2023-04-16T16:53:46.381Z,16.82
2023-04-16T16:56:31.829Z,16.78
2023-04-16T16:59:17.041Z,16.68
2023-04-16T17:02:02.334Z,16.70
2023-04-16T17:04:47.308Z,16.59
2023-04-16T17:07:32.927Z,16.46
2023-04-16T17:10:21.011Z,16.42
2023-04-16T17:13:05.979Z,16.45
2023-04-16T17:15:51.281Z,16.44
2023-04-16T17:18:36.665Z,16.47
2023-04-16T17:21:21.669Z,16.36
2023-04-16T17:24:06.744Z,16.32
2023-04-16T17:26:51.922Z,16.32
2023-04-16T17:29:36.849Z,16.25
2023-04-16T17:32:21.931Z,16.17
2023-04-16T17:35:09.312Z,16.06
2023-04-16T17:37:54.375Z,15.91
2023-04-16T17:40:39.728Z,15.90
2023-04-16T17:43:24.699Z,15.83
2023-04-16T17:46:11.642Z,15.80
2023-04-16T17:48:56.753Z,15.77
2023-04-16T17:51:44.287Z,15.70
2023-04-16T17:54:29.580Z,15.60
2023-04-16T17:57:14.978Z,15.59
2023-04-16T18:00:00.023Z,15.44
2023-04-16T18:02:45.387Z,15.46
2023-04-16T18:05:30.855Z,15.44
2023-04-16T18:08:16.290Z,15.41
2023-04-16T18:11:06.295Z,15.31
2023-04-16T18:13:53.650Z,15.20
2023-04-16T18:16:38.837Z,15.20
2023-04-16T18:19:24.044Z,15.20
2023-04-16T18:22:09.345Z,15.13
2023-04-16T18:24:54.924Z,15.12
2023-04-16T18:27:39.901Z,14.94
2023-04-16T18:30:26.735Z,15.03
2023-04-16T18:33:38.863Z,14.94
2023-04-16T18:36:17.272Z,14.85
2023-04-16T18:39:02.802Z,14.84
2023-04-16T18:41:48.037Z,14.80
2023-04-16T18:44:33.379Z,14.58
2023-04-16T18:47:18.895Z,14.62
2023-04-16T18:50:04.358Z,14.62
2023-04-16T18:52:49.484Z,14.61
2023-04-16T18:55:34.416Z,14.45
2023-04-16T18:58:19.436Z,14.40
2023-04-16T19:01:04.859Z,14.36
2023-04-16T19:03:50.504Z,14.29
2023-04-16T19:06:44.946Z,14.12
2023-04-16T19:09:29.838Z,14.13
2023-04-16T19:12:14.739Z,14.20
2023-04-16T19:14:59.946Z,14.15
2023-04-16T19:17:45.060Z,14.07
2023-04-16T19:20:29.974Z,14.07
2023-04-16T19:23:15.323Z,13.95
2023-04-16T19:26:01.435Z,13.96
2023-04-16T19:28:46.545Z,14.03
2023-04-16T19:31:31.725Z,13.89
2023-04-16T19:34:16.988Z,13.89
2023-04-16T19:37:01.881Z,13.96
2023-04-16T19:39:46.826Z,13.98
2023-04-16T19:42:32.227Z,13.97
2023-04-16T19:45:18.334Z,13.94
2023-04-16T19:48:03.781Z,13.95
2023-04-16T19:50:49.197Z,13.91
2023-04-16T19:53:34.699Z,13.83
2023-04-16T19:56:20.133Z,13.79
2023-04-16T19:59:04.902Z,13.76
2023-04-16T20:01:50.013Z,13.73
2023-04-16T20:04:35.664Z,13.78
2023-04-16T20:07:21.280Z,13.77
2023-04-16T20:10:06.874Z,13.72
2023-04-16T20:12:51.876Z,13.64
2023-04-16T20:15:37.381Z,13.70
2023-04-16T20:18:22.377Z,13.59
2023-04-16T20:21:08.083Z,13.64
2023-04-16T20:23:53.306Z,13.61
2023-04-16T20:26:38.414Z,13.61
2023-04-16T20:29:23.741Z,13.61
2023-04-16T20:32:08.983Z,13.51
2023-04-16T20:34:55.193Z,13.44
2023-04-16T20:37:42.118Z,13.43
2023-04-16T20:40:30.285Z,13.35
2023-04-16T20:43:18.702Z,13.42
2023-04-16T20:46:04.961Z,13.37
2023-04-16T20:48:51.202Z,13.27
2023-04-16T20:51:38.393Z,13.19
2023-04-16T20:54:23.698Z,13.20
2023-04-16T20:57:08.718Z,13.03
2023-04-16T20:59:53.945Z,13.01
2023-04-16T21:02:39.379Z,13.06
2023-04-16T21:05:26.501Z,13.01
2023-04-16T21:08:11.824Z,12.89
2023-04-16T21:10:57.060Z,12.84
2023-04-16T21:13:42.413Z,12.78
2023-04-16T21:16:27.391Z,12.67
2023-04-16T21:19:12.757Z,12.53
2023-04-16T21:21:58.356Z,12.52
2023-04-16T21:24:43.586Z,12.49
2023-04-16T21:27:28.646Z,12.45
2023-04-16T21:30:14.120Z,12.39
2023-04-16T21:32:59.352Z,12.36
2023-04-16T21:35:44.419Z,12.36
2023-04-16T21:38:29.631Z,12.32
2023-04-16T21:41:14.702Z,12.31
2023-04-16T21:43:59.835Z,12.24
2023-04-16T21:46:45.192Z,12.23
2023-04-16T21:49:30.391Z,12.14
2023-04-16T21:52:18.313Z,12.10
2023-04-16T21:55:03.934Z,12.07
2023-04-16T21:57:48.794Z,12.04
2023-04-16T22:00:35.045Z,11.91
2023-04-16T22:03:26.273Z,11.98
2023-04-16T22:06:14.114Z,11.89
2023-04-16T22:08:59.027Z,11.81
2023-04-16T22:11:46.513Z,11.88
2023-04-16T22:14:31.937Z,11.85
2023-04-16T22:17:17.162Z,11.80
2023-04-16T22:20:06.878Z,11.71
2023-04-16T22:22:57.579Z,11.61
2023-04-16T22:25:42.647Z,11.69
2023-04-16T22:28:28.072Z,11.68
2023-04-16T22:31:13.389Z,11.60
2023-04-16T22:33:58.451Z,11.58
2023-04-16T22:36:43.634Z,11.42
2023-04-16T22:39:29.808Z,11.53
2023-04-16T22:42:15.092Z,11.48
2023-04-16T22:45:00.074Z,11.43
2023-04-16T22:47:45.098Z,11.40
2023-04-16T22:50:31.225Z,11.27
2023-04-16T22:53:16.450Z,11.27
2023-04-16T22:56:01.799Z,11.30
2023-04-16T22:58:46.696Z,11.24
2023-04-16T23:01:32.983Z,11.23
2023-04-16T23:04:18.696Z,11.16
2023-04-16T23:07:03.842Z,11.20
2023-04-16T23:09:48.831Z,11.16
2023-04-16T23:12:33.849Z,11.19
2023-04-16T23:15:19.110Z,11.13
2023-04-16T23:18:04.370Z,11.07
2023-04-16T23:20:53.626Z,11.10
2023-04-16T23:23:38.621Z,11.07
2023-04-16T23:26:23.695Z,11.10
2023-04-16T23:29:09.028Z,11.07
2023-04-16T23:31:54.629Z,11.06
2023-04-16T23:34:39.657Z,11.03
2023-04-16T23:37:24.614Z,10.96
2023-04-16T23:40:10.303Z,10.97
2023-04-16T23:42:55.348Z,11.03
2023-04-16T23:45:40.303Z,10.91
2023-04-16T23:48:25.414Z,11.00
2023-04-16T23:51:10.621Z,11.00
2023-04-16T23:53:55.745Z,10.97
2023-04-16T23:56:41.422Z,10.95
2023-04-16T23:59:26.389Z,10.94
